Spar Hydra — LAKL7 — position and weather

sailwx.info

Track history (hours):
 
Tides and Currents Weather Stations Pressure Air Temp Water Temp Dewpoint Dewpoint Depression Visibility Wind Speed Wind Dir Waves Ship Positions

Spar Hydra

Last reported at 2017-Jul-21 12:29 UTC. Time now 2017-Jul-23 18:37 UTC.
Position S 29°24' E 032°03'.

Length 190 m; draft 10.5 m.

Type: Cargo ship. MMSI: 259701000.

Date/timePositionNaut miles runAvg speedWind from/ knotsBaromVisibWave heightAir tempDewpointWater temp
2017-Jul-21 12:29S 29°24' E 032°03'9 8.8
2017-Jul-21 11:30S 29°30' E 031°56'4 8.9
2017-Jul-21 11:00S 29°34' E 031°53'4 9.0
2017-Jul-21 10:30S 29°37' E 031°49'4 8.8
2017-Jul-21 10:00S 29°40' E 031°46'4 8.4
2017-Jul-21 09:31S 29°43' E 031°43'4 8.4
2017-Jul-21 09:01S 29°47' E 031°40'5 9.2
2017-Jul-21 08:31S 29°50' E 031°36'510.4
2017-Jul-21 08:01S 29°54' E 031°32'611.1
2017-Jul-21 07:31S 29°58' E 031°27'510.1
2017-Jul-21 07:01S 30°01' E 031°24'5 9.9
2017-Jul-21 06:31S 30°05' E 031°20'510.1
2017-Jul-21 06:00S 30°09' E 031°16'510.6
2017-Jul-21 05:31S 30°13' E 031°12'611.3
2017-Jul-21 05:00S 30°17' E 031°07'611.8
2017-Jul-21 04:31S 30°21' E 031°03'611.8
2017-Jul-21 04:00S 30°26' E 030°58'612.7
2017-Jul-21 03:31S 30°30' E 030°53'713.2
2017-Jul-21 03:00S 30°35' E 030°48'  
Track history (hours):
 
Tides and Currents Weather Stations Pressure Air Temp Water Temp Dewpoint Dewpoint Depression Visibility Wind Speed Wind Dir Waves Ship Positions

Spar Hydra

Last reported at 2017-Jul-21 12:29 UTC. Time now 2017-Jul-23 18:37 UTC.
Position S 29°24' E 032°03'.

Length 190 m; draft 10.5 m.

Type: Cargo ship. MMSI: 259701000.

Date/timePositionNaut miles runAvg speedWind from/ knotsBaromVisibWave heightAir tempDewpointWater temp
2017-Jul-21 12:29S 29°24' E 032°03'9 8.8
2017-Jul-21 11:30S 29°30' E 031°56'4 8.9
2017-Jul-21 11:00S 29°34' E 031°53'4 9.0
2017-Jul-21 10:30S 29°37' E 031°49'4 8.8
2017-Jul-21 10:00S 29°40' E 031°46'4 8.4
2017-Jul-21 09:31S 29°43' E 031°43'4 8.4
2017-Jul-21 09:01S 29°47' E 031°40'5 9.2
2017-Jul-21 08:31S 29°50' E 031°36'510.4
2017-Jul-21 08:01S 29°54' E 031°32'611.1
2017-Jul-21 07:31S 29°58' E 031°27'510.1
2017-Jul-21 07:01S 30°01' E 031°24'5 9.9
2017-Jul-21 06:31S 30°05' E 031°20'510.1
2017-Jul-21 06:00S 30°09' E 031°16'510.6
2017-Jul-21 05:31S 30°13' E 031°12'611.3
2017-Jul-21 05:00S 30°17' E 031°07'611.8
2017-Jul-21 04:31S 30°21' E 031°03'611.8
2017-Jul-21 04:00S 30°26' E 030°58'612.7
2017-Jul-21 03:31S 30°30' E 030°53'713.2
2017-Jul-21 03:00S 30°35' E 030°48'  

Dump ship's entire track history